createdAt,value
2019-04-10T00:01:21.966Z,68.54
2019-04-10T00:03:55.322Z,68.75
2019-04-10T00:06:27.875Z,68.12
2019-04-10T00:09:00.887Z,68.29
2019-04-10T00:11:34.583Z,67.94
2019-04-10T00:15:16.114Z,68.49
2019-04-10T00:17:40.918Z,68.16
2019-04-10T00:20:12.859Z,67.76
2019-04-10T00:22:44.964Z,67.92
2019-04-10T00:25:16.893Z,67.90
2019-04-10T00:27:48.761Z,67.33
2019-04-10T00:30:22.496Z,67.37
2019-04-10T00:32:54.495Z,67.01
2019-04-10T00:35:27.671Z,67.11
2019-04-10T00:37:59.691Z,67.58
2019-04-10T00:40:33.209Z,67.94
2019-04-10T00:43:06.587Z,68.00
2019-04-10T00:45:51.443Z,67.80
2019-04-10T00:48:23.969Z,68.28
2019-04-10T00:50:56.881Z,68.49
2019-04-10T00:53:29.533Z,68.55
2019-04-10T00:56:01.933Z,68.82
2019-04-10T00:58:33.896Z,68.96
2019-04-10T01:01:05.701Z,68.89
2019-04-10T01:03:44.270Z,68.81
2019-04-10T01:06:16.875Z,68.68
2019-04-10T01:08:48.924Z,68.39
2019-04-10T01:11:21.124Z,68.56
2019-04-10T01:13:53.711Z,68.48
2019-04-10T01:16:25.555Z,68.30
2019-04-10T01:19:15.484Z,68.57
2019-04-10T01:22:00.984Z,68.50
2019-04-10T01:24:25.783Z,68.63
2019-04-10T01:26:57.796Z,68.54
2019-04-10T01:29:41.823Z,68.69
2019-04-10T01:35:44.681Z,68.54
2019-04-10T01:41:50.148Z,68.98
2019-04-10T01:44:24.734Z,68.80
2019-04-10T01:52:39.218Z,68.87
2019-04-10T01:55:20.079Z,69.03
2019-04-10T01:57:44.880Z,68.90
2019-04-10T02:00:19.545Z,68.78
2019-04-10T02:02:52.508Z,68.76
2019-04-10T02:05:24.857Z,68.77
2019-04-10T02:08:03.210Z,68.98
2019-04-10T02:10:30.069Z,68.74
2019-04-10T02:13:03.153Z,68.73
2019-04-10T02:15:34.945Z,69.19
2019-04-10T02:18:06.734Z,69.31
2019-04-10T02:20:38.913Z,68.94
2019-04-10T02:23:10.745Z,68.91
2019-04-10T02:25:43.188Z,68.89
2019-04-10T02:28:15.124Z,68.69
2019-04-10T02:30:47.890Z,68.22
2019-04-10T02:33:19.796Z,68.47
2019-04-10T02:35:52.626Z,68.72
2019-04-10T02:38:40.085Z,69.11
2019-04-10T02:40:59.202Z,69.69
2019-04-10T02:43:31.187Z,69.62
2019-04-10T02:46:04.067Z,69.73
2019-04-10T02:48:36.301Z,69.83
2019-04-10T02:51:09.593Z,69.84
2019-04-10T02:53:43.696Z,70.42
2019-04-10T02:56:18.056Z,70.19
2019-04-10T02:58:51.563Z,70.34
2019-04-10T03:01:25.175Z,70.53
2019-04-10T03:03:57.301Z,70.62
2019-04-10T03:06:29.376Z,70.46
2019-04-10T03:09:16.333Z,70.26
2019-04-10T03:11:35.830Z,70.08
2019-04-10T03:14:08.089Z,70.01
2019-04-10T03:16:41.704Z,69.47
2019-04-10T03:19:13.757Z,69.34
2019-04-10T03:21:47.063Z,69.68
2019-04-10T03:24:19.192Z,69.67
2019-04-10T03:26:52.067Z,69.49
2019-04-10T03:29:24.121Z,69.93
2019-04-10T03:31:57.573Z,69.59
2019-04-10T03:34:34.280Z,69.31
2019-04-10T03:37:04.890Z,69.50
2019-04-10T03:39:36.632Z,69.27
2019-04-10T03:42:08.570Z,69.04
2019-04-10T03:44:40.879Z,69.08
2019-04-10T03:47:13.325Z,69.04
2019-04-10T03:49:46.778Z,68.86
2019-04-10T03:52:19.003Z,68.83
2019-04-10T03:54:50.922Z,68.79
2019-04-10T03:57:22.677Z,68.77
2019-04-10T03:59:55.943Z,68.90
2019-04-10T04:02:27.991Z,68.91
2019-04-10T04:04:59.726Z,69.34
2019-04-10T04:07:33.105Z,69.23
2019-04-10T04:10:06.358Z,69.21
2019-04-10T04:12:39.155Z,69.20
2019-04-10T04:15:13.555Z,69.63
2019-04-10T04:17:46.496Z,69.62
2019-04-10T04:20:19.098Z,69.73
2019-04-10T04:22:50.958Z,70.08
2019-04-10T04:25:22.685Z,69.78
2019-04-10T04:27:55.738Z,69.96
2019-04-10T04:30:30.350Z,70.11
2019-04-10T04:33:02.525Z,70.23
2019-04-10T04:35:34.679Z,70.15
2019-04-10T04:38:07.148Z,70.04
2019-04-10T04:40:39.153Z,69.32
2019-04-10T04:43:10.875Z,69.59
2019-04-10T04:45:42.595Z,69.98
2019-04-10T04:48:14.578Z,70.55
2019-04-10T04:50:47.061Z,70.40
2019-04-10T04:53:18.783Z,70.72
2019-04-10T04:55:51.421Z,70.76
2019-04-10T04:58:24.266Z,70.76
2019-04-10T05:00:58.483Z,70.99
2019-04-10T05:03:31.392Z,70.49
2019-04-10T05:06:05.604Z,70.84
2019-04-10T05:08:37.910Z,70.71
2019-04-10T05:11:09.885Z,70.90
2019-04-10T05:13:42.417Z,71.10
2019-04-10T05:16:14.900Z,70.78
2019-04-10T05:18:47.613Z,70.31
2019-04-10T05:21:19.528Z,71.10
2019-04-10T05:23:51.345Z,71.11
2019-04-10T05:26:24.261Z,71.56
2019-04-10T05:28:57.026Z,71.59
2019-04-10T05:31:30.178Z,71.09
2019-04-10T05:34:02.977Z,71.19
2019-04-10T05:36:34.943Z,71.17
2019-04-10T05:39:08.616Z,71.47
2019-04-10T05:41:40.373Z,71.96
2019-04-10T05:44:12.153Z,72.16
2019-04-10T05:46:45.227Z,72.25
2019-04-10T05:49:17.314Z,72.15
2019-04-10T05:51:50.091Z,72.32
2019-04-10T05:54:24.601Z,72.47
2019-04-10T05:56:58.994Z,72.31
2019-04-10T05:59:32.468Z,71.94
2019-04-10T06:02:05.317Z,71.88
2019-04-10T06:04:37.827Z,72.04
2019-04-10T06:07:10.647Z,72.16
2019-04-10T06:09:54.017Z,72.28
2019-04-10T06:12:16.091Z,72.86
2019-04-10T06:14:48.531Z,72.55
2019-04-10T06:17:20.748Z,72.75
2019-04-10T06:19:53.114Z,72.31
2019-04-10T06:22:28.408Z,72.30
2019-04-10T06:25:00.767Z,72.33
2019-04-10T06:27:34.440Z,72.00
2019-04-10T06:30:07.889Z,72.39
2019-04-10T06:32:40.208Z,72.25
2019-04-10T06:35:13.495Z,72.15
2019-04-10T06:37:46.414Z,71.76
2019-04-10T06:40:21.083Z,71.89
2019-04-10T06:42:53.924Z,72.16
2019-04-10T06:45:26.267Z,72.39
2019-04-10T06:47:58.425Z,72.43
2019-04-10T06:50:31.482Z,71.96
2019-04-10T06:53:04.171Z,71.44
2019-04-10T06:55:36.480Z,71.38
2019-04-10T06:58:09.788Z,71.53
2019-04-10T07:00:46.679Z,70.81
2019-04-10T07:03:16.943Z,70.35
2019-04-10T07:06:02.467Z,69.58
2019-04-10T07:08:27.262Z,69.90
2019-04-10T07:11:05.110Z,69.65
2019-04-10T07:13:36.847Z,69.21
2019-04-10T07:16:09.544Z,69.52
2019-04-10T07:18:41.220Z,68.97
2019-04-10T07:21:14.583Z,68.37
2019-04-10T07:23:46.937Z,67.42
2019-04-10T07:26:29.122Z,67.25
2019-04-10T07:28:53.358Z,67.06
2019-04-10T07:31:27.435Z,66.39
2019-04-10T07:33:59.962Z,66.79
2019-04-10T07:36:32.898Z,66.80
2019-04-10T07:39:05.501Z,66.71
2019-04-10T07:41:41.720Z,66.75
2019-04-10T07:44:13.542Z,66.42
2019-04-10T07:46:46.535Z,65.38
2019-04-10T07:49:19.820Z,65.65
2019-04-10T07:51:53.902Z,65.32
2019-04-10T07:54:26.723Z,65.67
2019-04-10T07:56:58.492Z,66.11
2019-04-10T07:59:31.464Z,65.19
2019-04-10T08:02:05.947Z,65.47
2019-04-10T08:04:37.408Z,65.39
2019-04-10T08:07:09.526Z,66.00
2019-04-10T08:09:42.943Z,65.74
2019-04-10T08:12:16.073Z,64.96
2019-04-10T08:14:48.902Z,65.37
2019-04-10T08:17:21.795Z,65.02
2019-04-10T08:19:53.668Z,64.03
2019-04-10T08:22:26.433Z,63.88
2019-04-10T08:24:58.264Z,63.12
2019-04-10T08:27:30.022Z,61.06
2019-04-10T08:30:01.768Z,60.29
2019-04-10T08:32:47.306Z,61.21
2019-04-10T08:35:08.970Z,61.71
2019-04-10T08:37:41.159Z,61.55
2019-04-10T08:40:13.514Z,61.60
2019-04-10T08:42:46.623Z,62.33
2019-04-10T08:45:19.011Z,61.66
2019-04-10T08:47:52.644Z,62.31
2019-04-10T08:50:24.670Z,63.29
2019-04-10T08:52:56.405Z,63.58
2019-04-10T08:55:28.315Z,64.52
2019-04-10T08:58:00.756Z,63.18
2019-04-10T09:00:32.853Z,61.82
2019-04-10T09:03:04.813Z,61.87
2019-04-10T09:05:38.569Z,58.38
2019-04-10T09:08:10.804Z,56.59
2019-04-10T09:10:42.943Z,54.80
2019-04-10T09:13:14.744Z,52.95
2019-04-10T09:15:47.943Z,50.34
2019-04-10T09:18:20.972Z,52.89
2019-04-10T09:20:53.143Z,52.59
2019-04-10T09:23:36.232Z,53.84
2019-04-10T09:25:59.571Z,54.07
2019-04-10T09:28:33.307Z,55.87
2019-04-10T09:31:05.172Z,55.72
2019-04-10T09:33:37.029Z,55.66
2019-04-10T09:36:09.087Z,55.45
2019-04-10T09:38:41.290Z,56.72
2019-04-10T09:41:13.998Z,56.31
2019-04-10T09:43:51.153Z,56.04
2019-04-10T09:46:22.869Z,56.95
2019-04-10T09:48:54.676Z,55.87
2019-04-10T09:51:26.682Z,56.76
2019-04-10T09:53:59.437Z,56.00
2019-04-10T09:56:32.078Z,55.98
2019-04-10T09:59:04.045Z,55.94
2019-04-10T10:01:37.958Z,56.73
2019-04-10T10:04:10.044Z,56.80
2019-04-10T10:06:41.770Z,56.06
2019-04-10T10:09:15.357Z,56.58
2019-04-10T10:11:49.753Z,56.69
2019-04-10T10:14:21.678Z,53.36
2019-04-10T10:16:53.397Z,52.46
2019-04-10T10:19:25.960Z,54.04
2019-04-10T10:22:01.625Z,52.74
2019-04-10T10:24:33.113Z,51.27
2019-04-10T10:27:05.345Z,46.21
2019-04-10T10:29:37.684Z,45.00
2019-04-10T10:32:09.446Z,40.29
2019-04-10T10:34:41.180Z,41.97
2019-04-10T10:37:13.010Z,46.76
2019-04-10T10:39:47.242Z,48.05
2019-04-10T10:42:19.334Z,45.97
2019-04-10T10:44:58.487Z,46.44
2019-04-10T10:47:30.702Z,47.39
2019-04-10T10:50:04.613Z,48.37
2019-04-10T10:52:37.631Z,49.89
2019-04-10T10:55:11.663Z,52.29
2019-04-10T10:57:45.446Z,50.31
2019-04-10T11:00:18.921Z,48.54
2019-04-10T11:02:51.834Z,45.19
2019-04-10T11:05:23.715Z,44.82
2019-04-10T11:07:55.889Z,43.09
2019-04-10T11:10:27.716Z,42.46
2019-04-10T11:13:00.074Z,43.89
2019-04-10T11:15:32.048Z,45.44
2019-04-10T11:18:04.288Z,45.70
2019-04-10T11:20:36.476Z,44.53
2019-04-10T11:23:09.406Z,42.83
2019-04-10T11:25:43.865Z,40.98
2019-04-10T11:28:16.273Z,39.08
2019-04-10T11:30:49.167Z,37.17
2019-04-10T11:33:22.294Z,40.83
2019-04-10T11:35:55.234Z,39.84
2019-04-10T11:38:27.336Z,37.02
2019-04-10T11:41:00.108Z,36.72
2019-04-10T11:43:33.642Z,37.86
2019-04-10T11:46:07.810Z,37.21
2019-04-10T11:48:41.854Z,37.36
2019-04-10T11:51:14.144Z,38.44
2019-04-10T11:53:48.700Z,36.87
2019-04-10T11:56:21.094Z,37.56
2019-04-10T11:58:56.318Z,38.36
2019-04-10T12:01:30.943Z,41.58
2019-04-10T12:04:05.124Z,44.41
2019-04-10T12:06:38.218Z,45.69
2019-04-10T12:09:56.936Z,43.06
2019-04-10T12:11:50.299Z,40.37
2019-04-10T12:14:23.638Z,39.74
2019-04-10T12:16:55.823Z,39.41
2019-04-10T12:19:28.946Z,40.38
2019-04-10T12:22:01.210Z,40.02
2019-04-10T12:24:32.912Z,42.01
2019-04-10T12:27:04.685Z,42.86
2019-04-10T12:29:38.467Z,41.72
2019-04-10T12:32:10.673Z,41.02
2019-04-10T12:34:43.244Z,40.06
2019-04-10T12:37:15.401Z,40.84
2019-04-10T12:39:47.872Z,40.97
2019-04-10T12:42:21.845Z,41.99
2019-04-10T12:44:53.665Z,44.18
2019-04-10T12:47:25.944Z,45.79
2019-04-10T12:49:58.338Z,47.03
2019-04-10T12:52:30.449Z,47.85
2019-04-10T12:55:02.174Z,46.29
2019-04-10T12:57:34.736Z,46.89
2019-04-10T13:00:09.628Z,46.67
2019-04-10T13:02:42.715Z,47.36
2019-04-10T13:05:14.565Z,47.12
2019-04-10T13:07:47.775Z,46.73
2019-04-10T13:10:20.381Z,46.44
2019-04-10T13:12:53.277Z,45.69
2019-04-10T13:15:25.687Z,45.67
2019-04-10T13:17:58.398Z,44.73
2019-04-10T13:20:31.568Z,46.78
2019-04-10T13:23:04.438Z,46.87
2019-04-10T13:25:36.716Z,46.44
2019-04-10T13:28:09.867Z,47.91
2019-04-10T13:30:49.717Z,46.82
2019-04-10T13:33:16.228Z,46.43
2019-04-10T13:35:49.126Z,46.21
2019-04-10T13:38:26.592Z,46.65
2019-04-10T13:40:54.752Z,45.77
2019-04-10T13:43:27.614Z,44.86
2019-04-10T13:46:00.444Z,45.36
2019-04-10T13:48:33.230Z,44.04
2019-04-10T13:51:05.417Z,42.60
2019-04-10T13:53:37.757Z,43.96
2019-04-10T13:56:11.413Z,44.79
2019-04-10T13:58:43.130Z,44.60
2019-04-10T14:01:20.292Z,45.01
2019-04-10T14:03:52.435Z,45.48
2019-04-10T14:06:25.420Z,45.02
2019-04-10T14:09:11.894Z,42.93
2019-04-10T14:11:30.782Z,41.58
2019-04-10T14:14:04.403Z,44.03
2019-04-10T14:16:37.825Z,44.60
2019-04-10T14:19:09.842Z,45.27
2019-04-10T14:21:41.570Z,45.82
2019-04-10T14:24:13.369Z,45.55
2019-04-10T14:27:01.618Z,46.24
2019-04-10T14:29:34.328Z,46.22
2019-04-10T14:32:09.150Z,44.91
2019-04-10T14:34:40.955Z,45.93
2019-04-10T14:37:13.833Z,46.23
2019-04-10T14:39:45.563Z,47.61
2019-04-10T14:42:18.478Z,48.03
2019-04-10T14:44:50.284Z,47.57
2019-04-10T14:47:25.695Z,47.66
2019-04-10T14:49:58.026Z,45.66
2019-04-10T14:52:30.165Z,46.51
2019-04-10T14:55:02.162Z,46.66
2019-04-10T14:57:34.965Z,47.14
2019-04-10T15:00:08.862Z,46.32
2019-04-10T15:02:41.268Z,47.49
2019-04-10T15:05:13.379Z,48.93
2019-04-10T15:07:45.148Z,47.25
2019-04-10T15:10:17.059Z,45.47
2019-04-10T15:12:49.731Z,45.47
2019-04-10T15:15:21.578Z,46.36
2019-04-10T15:17:54.158Z,46.87
2019-04-10T15:20:26.009Z,47.71
2019-04-10T15:22:58.637Z,47.75
2019-04-10T15:25:31.157Z,48.07
2019-04-10T15:28:02.936Z,47.21
2019-04-10T15:30:35.593Z,47.46
2019-04-10T15:33:07.314Z,46.24
2019-04-10T15:35:39.211Z,47.45
2019-04-10T15:38:18.716Z,46.48
2019-04-10T15:40:52.572Z,45.76
2019-04-10T15:43:25.402Z,46.32
2019-04-10T15:45:57.796Z,46.74
2019-04-10T15:48:29.551Z,45.45
2019-04-10T15:51:01.339Z,46.32
2019-04-10T15:53:34.534Z,46.12
2019-04-10T15:56:06.506Z,46.29
2019-04-10T15:58:38.226Z,47.04
2019-04-10T16:01:13.966Z,45.79
2019-04-10T16:03:45.663Z,44.96
2019-04-10T16:06:17.535Z,45.38
2019-04-10T16:08:50.271Z,44.49
2019-04-10T16:11:57.068Z,44.99
2019-04-10T16:14:31.497Z,44.61
2019-04-10T16:17:22.903Z,46.50
2019-04-10T16:20:02.090Z,47.02
2019-04-10T16:22:40.548Z,47.91
2019-04-10T16:25:17.866Z,47.99
2019-04-10T16:27:50.076Z,46.98
2019-04-10T16:30:24.230Z,47.45
2019-04-10T16:32:55.988Z,46.63
2019-04-10T16:35:32.485Z,46.99
2019-04-10T16:38:05.124Z,47.37
2019-04-10T16:40:40.050Z,46.92
2019-04-10T16:43:13.843Z,47.03
2019-04-10T16:45:46.922Z,47.54
2019-04-10T16:48:18.939Z,47.16
2019-04-10T16:50:51.853Z,47.63
2019-04-10T16:53:23.787Z,47.65
2019-04-10T16:55:56.780Z,48.70
2019-04-10T16:58:29.740Z,47.86
2019-04-10T17:01:02.249Z,48.40
2019-04-10T17:03:34.255Z,48.68
2019-04-10T17:06:06.106Z,48.81
2019-04-10T17:08:40.538Z,49.10
2019-04-10T17:11:13.310Z,49.16
2019-04-10T17:13:45.075Z,49.12
2019-04-10T17:16:17.726Z,49.26
2019-04-10T17:18:49.665Z,49.01
2019-04-10T17:21:23.090Z,48.89
2019-04-10T17:23:54.859Z,49.88
2019-04-10T17:26:26.957Z,49.48
2019-04-10T17:28:58.899Z,49.58
2019-04-10T17:31:32.818Z,49.63
2019-04-10T17:34:04.673Z,49.29
2019-04-10T17:36:36.885Z,49.18
2019-04-10T17:39:16.184Z,49.70
2019-04-10T17:41:48.193Z,49.16
2019-04-10T17:44:21.658Z,49.86
2019-04-10T17:46:53.438Z,50.43
2019-04-10T17:49:25.858Z,50.79
2019-04-10T17:51:58.715Z,50.54
2019-04-10T17:54:31.408Z,51.19
2019-04-10T17:57:04.510Z,51.52
2019-04-10T17:59:36.584Z,51.71
2019-04-10T18:02:11.764Z,52.06
2019-04-10T18:04:44.242Z,52.26
2019-04-10T18:07:16.307Z,52.67
2019-04-10T18:09:48.567Z,52.25
2019-04-10T18:12:21.619Z,52.74
2019-04-10T18:14:53.576Z,53.04
2019-04-10T18:17:25.410Z,54.03
2019-04-10T18:19:57.175Z,54.03
2019-04-10T18:22:30.689Z,54.28
2019-04-10T18:25:03.484Z,54.35
2019-04-10T18:27:36.493Z,54.30
2019-04-10T18:30:09.939Z,54.78
2019-04-10T18:32:42.209Z,55.13
2019-04-10T18:35:14.330Z,55.18
2019-04-10T18:37:47.689Z,55.10
2019-04-10T18:40:21.698Z,55.32
2019-04-10T18:42:56.138Z,55.32
2019-04-10T18:45:28.025Z,55.25
2019-04-10T18:48:00.620Z,56.10
2019-04-10T18:50:32.719Z,55.80
2019-04-10T18:53:04.621Z,56.07
2019-04-10T18:55:36.861Z,56.47
2019-04-10T18:58:13.730Z,56.60
2019-04-10T19:01:14.225Z,56.72
2019-04-10T19:04:16.816Z,57.43
2019-04-10T19:06:57.293Z,57.61
2019-04-10T19:09:36.862Z,58.23
2019-04-10T19:12:08.893Z,58.18
2019-04-10T19:14:40.804Z,59.27
2019-04-10T19:17:13.007Z,59.88
2019-04-10T19:19:45.423Z,60.27
2019-04-10T19:22:20.300Z,60.51
2019-04-10T19:24:52.542Z,60.60
2019-04-10T19:27:25.549Z,61.13
2019-04-10T19:30:00.886Z,61.17
2019-04-10T19:32:37.435Z,61.49
2019-04-10T19:35:09.442Z,61.45
2019-04-10T19:37:42.666Z,61.53
2019-04-10T19:40:15.926Z,61.88
2019-04-10T19:42:47.766Z,61.62
2019-04-10T19:45:19.582Z,61.79
2019-04-10T19:47:52.719Z,61.98
2019-04-10T19:50:25.527Z,62.27
2019-04-10T19:52:57.715Z,62.02
2019-04-10T19:55:30.257Z,62.54
2019-04-10T19:58:03.830Z,62.27
2019-04-10T20:00:36.876Z,62.56
2019-04-10T20:03:11.194Z,62.80
2019-04-10T20:05:44.243Z,62.72
2019-04-10T20:08:17.516Z,62.50
2019-04-10T20:10:50.469Z,62.84
2019-04-10T20:13:22.730Z,62.78
2019-04-10T20:15:55.181Z,62.25
2019-04-10T20:18:29.632Z,62.75
2019-04-10T20:21:03.850Z,63.13
2019-04-10T20:23:36.155Z,63.07
2019-04-10T20:26:08.283Z,62.75
2019-04-10T20:28:42.805Z,63.45
2019-04-10T20:31:25.557Z,63.29
2019-04-10T20:33:57.568Z,63.30
2019-04-10T20:36:31.803Z,63.03
2019-04-10T20:39:05.949Z,63.00
2019-04-10T20:41:46.534Z,63.11
2019-04-10T20:44:12.463Z,63.64
2019-04-10T20:46:44.518Z,63.92
2019-04-10T20:49:16.689Z,63.75
2019-04-10T20:51:48.927Z,63.41
2019-04-10T20:54:22.510Z,63.29
2019-04-10T20:56:54.891Z,63.54
2019-04-10T20:59:26.924Z,63.27
2019-04-10T21:01:59.934Z,63.97
2019-04-10T21:04:33.848Z,64.47
2019-04-10T21:07:06.902Z,63.85
2019-04-10T21:09:39.584Z,63.71
2019-04-10T21:12:17.466Z,63.85
2019-04-10T21:14:47.789Z,64.00
2019-04-10T21:17:20.512Z,64.05
2019-04-10T21:19:53.692Z,64.18
2019-04-10T21:22:26.506Z,64.55
2019-04-10T21:25:00.593Z,64.86
2019-04-10T21:27:32.988Z,65.40
2019-04-10T21:30:24.226Z,65.91
2019-04-10T21:33:18.389Z,65.86
2019-04-10T21:35:51.958Z,66.63
2019-04-10T21:38:26.196Z,66.40
2019-04-10T21:40:59.393Z,66.44
2019-04-10T21:43:32.624Z,66.20
2019-04-10T21:46:06.085Z,66.29
2019-04-10T21:48:39.104Z,66.39
2019-04-10T21:51:12.204Z,66.42
2019-04-10T21:53:45.162Z,67.46
2019-04-10T21:56:18.075Z,67.61
2019-04-10T21:58:50.076Z,68.05
2019-04-10T22:01:24.244Z,68.09
2019-04-10T22:03:58.482Z,67.82
2019-04-10T22:06:40.168Z,67.33
2019-04-10T22:09:30.541Z,66.98
2019-04-10T22:12:22.197Z,67.25
2019-04-10T22:14:43.872Z,67.41
2019-04-10T22:17:17.493Z,67.56
2019-04-10T22:19:49.322Z,68.16
2019-04-10T22:22:22.255Z,68.10
2019-04-10T22:24:54.764Z,68.08
2019-04-10T22:27:29.553Z,67.55
2019-04-10T22:30:02.896Z,67.67
2019-04-10T22:32:36.179Z,67.80
2019-04-10T22:35:08.966Z,67.61
2019-04-10T22:37:41.290Z,68.10
2019-04-10T22:40:13.132Z,68.05
2019-04-10T22:42:47.873Z,67.91
2019-04-10T22:45:30.910Z,67.79
2019-04-10T22:48:04.048Z,67.70
2019-04-10T22:50:36.474Z,67.88
2019-04-10T22:53:08.918Z,68.01
2019-04-10T22:55:42.060Z,68.30
2019-04-10T22:58:15.325Z,68.52
2019-04-10T23:00:48.844Z,68.54
2019-04-10T23:03:22.318Z,69.08
2019-04-10T23:05:56.492Z,69.63
2019-04-10T23:08:28.898Z,69.71
2019-04-10T23:11:01.481Z,69.00
2019-04-10T23:13:36.305Z,69.16
2019-04-10T23:16:09.266Z,68.98
2019-04-10T23:18:41.409Z,68.91
2019-04-10T23:21:14.472Z,68.97
2019-04-10T23:23:47.523Z,68.53
2019-04-10T23:26:24.942Z,68.50
2019-04-10T23:28:57.897Z,68.78
2019-04-10T23:31:29.888Z,68.67
2019-04-10T23:34:01.720Z,68.91
2019-04-10T23:36:34.027Z,69.12
2019-04-10T23:39:08.103Z,69.22
2019-04-10T23:41:40.158Z,69.48
2019-04-10T23:44:13.565Z,69.49
2019-04-10T23:46:47.466Z,69.39
2019-04-10T23:49:19.525Z,69.85
2019-04-10T23:51:53.603Z,69.95
2019-04-10T23:54:27.032Z,70.08
2019-04-10T23:56:59.104Z,69.89
2019-04-10T23:59:30.930Z,70.04
